createdAt,value
2019-02-02T00:01:27.073Z,76.07
2019-02-02T00:03:56.257Z,76.10
2019-02-02T00:06:25.784Z,75.72
2019-02-02T00:08:56.388Z,75.81
2019-02-02T00:11:25.287Z,76.20
2019-02-02T00:13:53.989Z,76.17
2019-02-02T00:16:22.923Z,76.52
2019-02-02T00:18:51.839Z,75.66
2019-02-02T00:21:20.534Z,74.66
2019-02-02T00:23:50.548Z,75.15
2019-02-02T00:26:20.836Z,74.95
2019-02-02T00:28:50.875Z,75.73
2019-02-02T00:31:20.995Z,75.42
2019-02-02T00:33:51.324Z,75.58
2019-02-02T00:36:21.463Z,76.60
2019-02-02T00:38:51.778Z,76.70
2019-02-02T00:41:21.998Z,76.42
2019-02-02T00:43:52.227Z,76.72
2019-02-02T00:46:22.466Z,76.48
2019-02-02T00:48:53.163Z,76.73
2019-02-02T00:51:23.049Z,77.25
2019-02-02T00:53:53.391Z,77.67
2019-02-02T00:56:43.667Z,78.04
2019-02-02T00:59:14.158Z,78.26
2019-02-02T01:01:44.342Z,77.99
2019-02-02T01:04:14.731Z,77.91
2019-02-02T01:06:44.558Z,77.31
2019-02-02T01:09:16.497Z,76.94
2019-02-02T01:11:46.483Z,77.27
2019-02-02T01:14:16.853Z,77.68
2019-02-02T01:16:47.847Z,78.13
2019-02-02T01:19:17.824Z,78.52
2019-02-02T01:21:47.743Z,78.87
2019-02-02T01:24:17.291Z,79.53
2019-02-02T01:27:07.398Z,79.50
2019-02-02T01:29:37.671Z,79.68
2019-02-02T01:32:07.586Z,79.00
2019-02-02T01:34:38.128Z,78.64
2019-02-02T01:37:08.005Z,78.76
2019-02-02T01:39:38.800Z,78.30
2019-02-02T01:42:09.038Z,78.58
2019-02-02T01:44:41.886Z,78.51
2019-02-02T01:47:11.878Z,78.23
2019-02-02T01:49:41.921Z,77.95
2019-02-02T01:52:12.422Z,78.02
2019-02-02T01:54:42.681Z,77.93
2019-02-02T01:57:12.385Z,78.42
2019-02-02T01:59:42.884Z,79.80
2019-02-02T02:02:12.899Z,78.44
2019-02-02T02:04:42.961Z,77.65
2019-02-02T02:07:13.176Z,77.32
2019-02-02T02:09:43.616Z,76.92
2019-02-02T02:12:13.366Z,77.54
2019-02-02T02:14:44.675Z,77.04
2019-02-02T02:17:14.818Z,77.12
2019-02-02T02:19:44.993Z,77.26
2019-02-02T02:22:15.641Z,76.42
2019-02-02T02:24:46.041Z,76.68
2019-02-02T02:27:16.294Z,76.55
2019-02-02T02:29:46.193Z,76.90
2019-02-02T02:32:16.061Z,77.83
2019-02-02T02:34:46.793Z,78.37
2019-02-02T02:37:17.464Z,78.35
2019-02-02T02:39:47.471Z,77.72
2019-02-02T02:42:17.953Z,77.71
2019-02-02T02:44:49.220Z,77.59
2019-02-02T02:47:19.436Z,78.00
2019-02-02T02:49:49.373Z,77.77
2019-02-02T02:52:19.920Z,76.18
2019-02-02T02:54:49.644Z,76.05
2019-02-02T02:57:19.619Z,76.56
2019-02-02T02:59:49.873Z,76.82
2019-02-02T03:02:19.425Z,76.87
2019-02-02T03:04:50.242Z,77.57
2019-02-02T03:07:19.957Z,77.87
2019-02-02T03:09:50.402Z,78.00
2019-02-02T03:12:20.447Z,78.07
2019-02-02T03:14:50.871Z,77.82
2019-02-02T03:17:20.821Z,77.24
2019-02-02T03:19:50.635Z,76.89
2019-02-02T03:22:20.569Z,76.78
2019-02-02T03:24:50.916Z,76.01
2019-02-02T03:27:20.771Z,75.45
2019-02-02T03:29:50.935Z,75.50
2019-02-02T03:32:21.382Z,76.05
2019-02-02T03:34:52.019Z,75.34
2019-02-02T03:37:21.946Z,74.91
2019-02-02T03:39:53.538Z,75.11
2019-02-02T03:42:23.149Z,75.23
2019-02-02T03:44:53.488Z,75.78
2019-02-02T03:47:25.311Z,76.26
2019-02-02T03:49:55.745Z,77.40
2019-02-02T03:52:25.731Z,77.69
2019-02-02T03:54:55.807Z,77.78
2019-02-02T03:57:27.291Z,77.43
2019-02-02T03:59:57.562Z,77.24
2019-02-02T04:02:30.717Z,77.00
2019-02-02T04:05:01.533Z,76.35
2019-02-02T04:07:31.836Z,75.84
2019-02-02T04:10:01.746Z,75.48
2019-02-02T04:12:31.761Z,75.93
2019-02-02T04:15:00.749Z,76.30
2019-02-02T04:17:31.419Z,76.60
2019-02-02T04:20:01.617Z,76.86
2019-02-02T04:22:31.029Z,77.09
2019-02-02T04:25:01.062Z,76.41
2019-02-02T04:27:31.702Z,76.75
2019-02-02T04:30:02.108Z,76.76
2019-02-02T04:32:32.337Z,76.84
2019-02-02T04:35:02.803Z,77.04
2019-02-02T04:37:31.820Z,77.29
2019-02-02T04:40:04.480Z,76.84
2019-02-02T04:42:34.728Z,76.47
2019-02-02T04:45:05.869Z,76.66
2019-02-02T04:47:35.842Z,76.80
2019-02-02T04:50:07.811Z,77.17
2019-02-02T04:52:38.363Z,77.08
2019-02-02T04:55:09.760Z,76.97
2019-02-02T04:57:40.168Z,77.08
2019-02-02T05:00:12.991Z,77.51
2019-02-02T05:02:43.324Z,77.07
2019-02-02T05:05:15.417Z,77.30
2019-02-02T05:07:46.656Z,77.25
2019-02-02T05:10:19.494Z,77.02
2019-02-02T05:12:49.387Z,76.09
2019-02-02T05:15:19.694Z,75.59
2019-02-02T05:17:54.742Z,75.61
2019-02-02T05:20:24.972Z,75.94
2019-02-02T05:22:55.684Z,76.54
2019-02-02T05:25:25.937Z,75.88
2019-02-02T05:27:55.790Z,75.87
2019-02-02T05:30:31.450Z,75.79
2019-02-02T05:33:02.113Z,75.59
2019-02-02T05:35:32.644Z,76.45
2019-02-02T05:38:02.806Z,76.78
2019-02-02T05:40:33.200Z,77.14
2019-02-02T05:43:03.529Z,77.22
2019-02-02T05:45:33.974Z,77.56
2019-02-02T05:48:04.034Z,77.34
2019-02-02T05:50:34.694Z,77.80
2019-02-02T05:53:04.832Z,78.03
2019-02-02T05:55:34.705Z,78.00
2019-02-02T05:58:03.074Z,78.12
2019-02-02T06:00:33.584Z,78.19
2019-02-02T06:03:02.559Z,78.37
2019-02-02T06:05:30.901Z,78.46
2019-02-02T06:07:59.274Z,78.53
2019-02-02T06:10:27.849Z,78.47
2019-02-02T06:12:56.215Z,77.95
2019-02-02T06:15:24.739Z,77.74
2019-02-02T06:17:53.877Z,77.77
2019-02-02T06:20:22.306Z,77.92
2019-02-02T06:22:50.663Z,77.79
2019-02-02T06:25:19.678Z,77.51
2019-02-02T06:27:48.015Z,77.35
2019-02-02T06:30:20.877Z,77.61
2019-02-02T06:32:49.573Z,77.00
2019-02-02T06:35:18.873Z,76.30
2019-02-02T06:37:47.291Z,76.61
2019-02-02T06:40:16.627Z,76.97
2019-02-02T06:42:45.103Z,76.92
2019-02-02T06:45:24.667Z,77.09
2019-02-02T06:47:53.147Z,77.34
2019-02-02T06:50:21.588Z,77.46
2019-02-02T06:52:49.998Z,77.32
2019-02-02T06:55:18.490Z,77.24
2019-02-02T06:57:46.886Z,77.11
2019-02-02T07:00:21.030Z,76.69
2019-02-02T07:02:51.083Z,76.35
2019-02-02T07:05:19.449Z,76.06
2019-02-02T07:07:48.101Z,76.90
2019-02-02T07:10:19.063Z,77.09
2019-02-02T07:12:47.465Z,77.19
2019-02-02T07:15:17.925Z,78.25
2019-02-02T07:17:46.508Z,78.54
2019-02-02T07:20:17.238Z,78.04
2019-02-02T07:22:45.709Z,78.32
2019-02-02T07:25:14.440Z,78.78
2019-02-02T07:27:42.894Z,80.00
2019-02-02T07:30:13.913Z,80.07
2019-02-02T07:32:42.983Z,79.88
2019-02-02T07:35:12.424Z,79.12
2019-02-02T07:37:40.885Z,78.61
2019-02-02T07:40:15.041Z,78.12
2019-02-02T07:42:43.440Z,78.58
2019-02-02T07:45:14.862Z,78.75
2019-02-02T07:47:43.231Z,79.31
2019-02-02T07:50:14.239Z,79.41
2019-02-02T07:52:42.828Z,79.21
2019-02-02T07:55:14.225Z,79.06
2019-02-02T07:57:42.744Z,79.08
2019-02-02T08:00:26.041Z,79.27
2019-02-02T08:02:54.421Z,79.11
2019-02-02T08:05:23.068Z,78.97
2019-02-02T08:07:51.361Z,78.93
2019-02-02T08:10:19.794Z,78.49
2019-02-02T08:12:51.373Z,77.41
2019-02-02T08:15:25.233Z,77.52
2019-02-02T08:17:55.219Z,77.78
2019-02-02T08:20:23.753Z,77.96
2019-02-02T08:22:52.271Z,77.77
2019-02-02T08:25:20.759Z,77.40
2019-02-02T08:27:49.192Z,77.13
2019-02-02T08:30:22.618Z,76.65
2019-02-02T08:32:51.074Z,76.29
2019-02-02T08:35:20.364Z,76.18
2019-02-02T08:37:48.919Z,76.83
2019-02-02T08:40:19.171Z,76.92
2019-02-02T08:42:47.687Z,76.72
2019-02-02T08:45:16.528Z,76.57
2019-02-02T08:47:44.939Z,77.80
2019-02-02T08:50:16.050Z,77.85
2019-02-02T08:52:44.533Z,77.80
2019-02-02T08:55:13.299Z,77.54
2019-02-02T08:57:44.025Z,76.68
2019-02-02T09:00:16.211Z,75.71
2019-02-02T09:02:46.799Z,74.85
2019-02-02T09:05:21.729Z,73.87
2019-02-02T09:07:52.019Z,73.42
2019-02-02T09:10:23.077Z,72.38
2019-02-02T09:12:53.801Z,72.19
2019-02-02T09:15:24.043Z,72.71
2019-02-02T09:17:53.916Z,71.98
2019-02-02T09:20:23.840Z,71.56
2019-02-02T09:23:03.969Z,70.38
2019-02-02T09:25:25.512Z,70.49
2019-02-02T09:27:55.881Z,70.40
2019-02-02T09:30:27.978Z,71.34
2019-02-02T09:32:58.500Z,71.42
2019-02-02T09:35:39.822Z,71.32
2019-02-02T09:38:12.135Z,71.39
2019-02-02T09:40:41.907Z,69.85
2019-02-02T09:43:12.188Z,68.49
2019-02-02T09:45:42.251Z,68.84
2019-02-02T09:48:12.487Z,69.09
2019-02-02T09:50:41.315Z,68.55
2019-02-02T09:53:11.482Z,68.19
2019-02-02T09:55:41.050Z,67.82
2019-02-02T09:58:11.248Z,67.64
2019-02-02T10:00:41.414Z,66.90
2019-02-02T10:03:11.592Z,67.13
2019-02-02T10:05:41.164Z,68.09
2019-02-02T10:08:11.018Z,67.78
2019-02-02T10:10:41.042Z,68.40
2019-02-02T10:13:12.052Z,68.46
2019-02-02T10:15:41.925Z,69.32
2019-02-02T10:18:12.323Z,70.37
2019-02-02T10:20:42.657Z,70.24
2019-02-02T10:23:12.890Z,69.68
2019-02-02T10:25:42.904Z,69.93
2019-02-02T10:28:15.561Z,70.52
2019-02-02T10:30:45.428Z,70.84
2019-02-02T10:33:14.336Z,70.22
2019-02-02T10:35:43.236Z,70.39
2019-02-02T10:38:13.067Z,69.46
2019-02-02T10:40:43.363Z,69.96
2019-02-02T10:43:13.554Z,69.81
2019-02-02T10:45:44.521Z,70.05
2019-02-02T10:48:13.326Z,69.90
2019-02-02T10:50:43.630Z,69.33
2019-02-02T10:53:20.438Z,68.91
2019-02-02T10:55:50.151Z,68.55
2019-02-02T10:58:18.825Z,68.91
2019-02-02T11:00:47.919Z,69.02
2019-02-02T11:03:17.130Z,68.50
2019-02-02T11:05:47.503Z,68.75
2019-02-02T11:08:17.048Z,68.45
2019-02-02T11:10:45.706Z,69.48
2019-02-02T11:13:16.400Z,68.81
2019-02-02T11:15:47.172Z,68.72
2019-02-02T11:18:17.345Z,68.34
2019-02-02T11:20:46.054Z,67.30
2019-02-02T11:23:15.180Z,66.81
2019-02-02T11:25:44.030Z,66.93
2019-02-02T11:28:12.752Z,66.22
2019-02-02T11:30:41.546Z,66.48
2019-02-02T11:33:10.106Z,66.77
2019-02-02T11:35:38.678Z,66.31
2019-02-02T11:38:07.244Z,61.45
2019-02-02T11:40:36.277Z,55.64
2019-02-02T11:43:06.647Z,55.64
2019-02-02T11:45:36.527Z,53.23
2019-02-02T11:48:06.378Z,48.89
2019-02-02T11:50:35.997Z,45.44
2019-02-02T11:53:06.208Z,44.43
2019-02-02T11:55:35.664Z,47.46
2019-02-02T11:58:06.221Z,46.86
2019-02-02T12:00:40.989Z,50.10
2019-02-02T12:05:42.617Z,50.75
2019-02-02T12:08:11.029Z,50.51
2019-02-02T12:10:39.525Z,50.69
2019-02-02T12:13:08.016Z,52.55
2019-02-02T12:15:36.760Z,53.32
2019-02-02T12:18:05.298Z,54.62
2019-02-02T12:20:33.925Z,53.80
2019-02-02T12:23:02.334Z,54.36
2019-02-02T12:25:30.904Z,55.76
2019-02-02T12:27:59.291Z,55.39
2019-02-02T12:30:34.597Z,58.71
2019-02-02T12:33:03.746Z,59.52
2019-02-02T12:35:32.556Z,58.49
2019-02-02T12:38:00.969Z,58.29
2019-02-02T12:40:30.157Z,59.53
2019-02-02T12:42:58.553Z,62.14
2019-02-02T12:45:36.205Z,61.80
2019-02-02T12:48:05.148Z,60.30
2019-02-02T12:50:33.561Z,59.23
2019-02-02T12:53:02.166Z,60.30
2019-02-02T12:55:30.728Z,60.27
2019-02-02T12:57:59.130Z,60.27
2019-02-02T13:00:27.686Z,59.82
2019-02-02T13:02:56.064Z,59.36
2019-02-02T13:05:24.928Z,59.77
2019-02-02T13:07:53.301Z,60.08
2019-02-02T13:10:31.676Z,59.98
2019-02-02T13:13:00.073Z,60.48
2019-02-02T13:15:28.621Z,59.04
2019-02-02T13:17:59.732Z,59.93
2019-02-02T13:20:28.312Z,59.80
2019-02-02T13:22:56.731Z,60.08
2019-02-02T13:25:29.884Z,59.33
2019-02-02T13:27:58.219Z,59.50
2019-02-02T13:30:29.016Z,59.61
2019-02-02T13:32:57.468Z,58.96
2019-02-02T13:35:33.890Z,59.27
2019-02-02T13:38:02.299Z,60.30
2019-02-02T13:40:30.684Z,59.66
2019-02-02T13:42:58.956Z,60.30
2019-02-02T13:45:27.486Z,59.34
2019-02-02T13:47:55.828Z,56.19
2019-02-02T13:50:24.702Z,55.76
2019-02-02T13:52:53.290Z,54.93
2019-02-02T13:55:21.772Z,55.60
2019-02-02T13:57:50.268Z,57.63
2019-02-02T14:00:27.321Z,58.90
2019-02-02T14:03:02.850Z,58.50
2019-02-02T14:05:25.941Z,58.80
2019-02-02T14:07:54.553Z,58.86
2019-02-02T14:10:28.473Z,59.03
2019-02-02T14:12:57.034Z,59.40
2019-02-02T14:15:25.930Z,59.23
2019-02-02T14:17:54.359Z,60.78
2019-02-02T14:20:22.834Z,61.23
2019-02-02T14:22:51.236Z,61.23
2019-02-02T14:25:20.205Z,61.51
2019-02-02T14:27:48.731Z,61.98
2019-02-02T14:30:19.082Z,62.06
2019-02-02T14:32:48.845Z,61.59
2019-02-02T14:35:19.252Z,62.08
2019-02-02T14:37:48.610Z,62.92
2019-02-02T14:40:19.331Z,62.58
2019-02-02T14:42:47.984Z,62.82
2019-02-02T14:45:21.200Z,62.94
2019-02-02T14:47:49.675Z,63.24
2019-02-02T14:50:19.781Z,63.37
2019-02-02T14:52:49.473Z,63.40
2019-02-02T14:55:20.461Z,63.64
2019-02-02T14:57:50.485Z,64.07
2019-02-02T15:00:20.946Z,64.17
2019-02-02T15:02:49.392Z,66.97
2019-02-02T15:05:19.688Z,66.97
2019-02-02T15:07:48.094Z,66.77
2019-02-02T15:10:16.702Z,67.46
2019-02-02T15:12:46.677Z,69.39
2019-02-02T15:15:16.583Z,68.14
2019-02-02T15:17:45.058Z,68.83
2019-02-02T15:20:22.722Z,68.07
2019-02-02T15:22:51.186Z,68.07
2019-02-02T15:25:19.740Z,67.83
2019-02-02T15:27:48.297Z,67.05
2019-02-02T15:30:22.496Z,67.05
2019-02-02T15:32:50.907Z,67.95
2019-02-02T15:35:19.285Z,68.38
2019-02-02T15:37:47.804Z,68.38
2019-02-02T15:40:18.444Z,69.20
2019-02-02T15:42:46.933Z,70.94
2019-02-02T15:45:18.230Z,70.41
2019-02-02T15:47:46.886Z,69.67
2019-02-02T15:50:16.854Z,69.67
2019-02-02T15:52:45.813Z,69.85
2019-02-02T15:55:19.609Z,70.26
2019-02-02T15:57:48.267Z,70.29
2019-02-02T16:00:28.590Z,69.80
2019-02-02T16:02:57.187Z,70.37
2019-02-02T16:05:26.332Z,71.01
2019-02-02T16:07:55.313Z,71.01
2019-02-02T16:10:28.908Z,71.60
2019-02-02T16:12:57.389Z,71.46
2019-02-02T16:15:25.758Z,70.82
2019-02-02T16:17:54.286Z,70.82
2019-02-02T16:20:28.565Z,70.97
2019-02-02T16:22:57.074Z,71.23
2019-02-02T16:25:25.393Z,71.43
2019-02-02T16:27:54.458Z,70.79
2019-02-02T16:30:28.043Z,70.35
2019-02-02T16:32:56.616Z,70.09
2019-02-02T16:35:25.553Z,70.25
2019-02-02T16:37:55.648Z,70.03
2019-02-02T16:40:27.252Z,69.75
2019-02-02T16:42:56.073Z,70.64
2019-02-02T16:45:27.244Z,69.24
2019-02-02T16:48:17.150Z,69.24
2019-02-02T16:50:45.590Z,69.66
2019-02-02T16:53:14.031Z,70.42
2019-02-02T16:55:42.407Z,70.12
2019-02-02T16:58:16.582Z,70.12
2019-02-02T17:00:45.038Z,70.07
2019-02-02T17:03:13.533Z,70.18
2019-02-02T17:05:41.849Z,69.59
2019-02-02T17:08:10.494Z,69.32
2019-02-02T17:10:39.024Z,69.27
2019-02-02T17:13:08.205Z,68.75
2019-02-02T17:15:36.623Z,69.33
2019-02-02T17:18:06.010Z,70.73
2019-02-02T17:20:38.124Z,70.62
2019-02-02T17:23:06.943Z,69.51
2019-02-02T17:25:35.424Z,68.71
2019-02-02T17:28:04.439Z,68.71
2019-02-02T17:30:32.924Z,68.20
2019-02-02T17:33:06.829Z,68.12
2019-02-02T17:35:35.334Z,68.24
2019-02-02T17:38:03.732Z,68.34
2019-02-02T17:40:32.244Z,68.94
2019-02-02T17:43:00.607Z,69.17
2019-02-02T17:45:29.109Z,69.17
2019-02-02T17:47:57.561Z,67.82
2019-02-02T17:50:27.538Z,68.23
2019-02-02T17:52:56.251Z,68.23
2019-02-02T17:55:24.873Z,68.27
2019-02-02T17:57:53.694Z,68.27
2019-02-02T18:00:35.930Z,68.27
2019-02-02T18:03:05.736Z,68.27
2019-02-02T18:05:34.618Z,69.06
2019-02-02T18:08:03.476Z,69.06
2019-02-02T18:10:46.075Z,69.20
2019-02-02T18:14:26.826Z,69.68
2019-02-02T18:16:09.101Z,69.99
2019-02-02T18:24:54.796Z,69.48
2019-02-02T18:30:54.686Z,69.33
2019-02-02T18:35:46.846Z,69.70
2019-02-02T18:38:37.374Z,69.78
2019-02-02T18:41:07.870Z,69.79
2019-02-02T18:43:42.575Z,69.75
2019-02-02T18:46:13.733Z,69.78
2019-02-02T18:48:42.674Z,70.36
2019-02-02T18:51:13.641Z,69.74
2019-02-02T18:53:45.476Z,70.05
2019-02-02T18:56:14.559Z,70.05
2019-02-02T18:58:43.259Z,69.47
2019-02-02T19:01:12.152Z,69.44
2019-02-02T19:03:41.528Z,69.52
2019-02-02T19:06:10.475Z,69.50
2019-02-02T19:08:39.332Z,69.52
2019-02-02T19:11:08.300Z,69.75
2019-02-02T19:13:37.412Z,69.68
2019-02-02T19:16:07.987Z,69.35
2019-02-02T19:18:36.965Z,70.09
2019-02-02T19:21:05.862Z,69.63
2019-02-02T19:23:34.734Z,69.76
2019-02-02T19:26:03.617Z,69.90
2019-02-02T19:28:39.407Z,70.10
2019-02-02T19:31:17.223Z,70.46
2019-02-02T19:33:45.636Z,70.26
2019-02-02T19:36:13.985Z,69.92
2019-02-02T19:38:42.493Z,70.16
2019-02-02T19:41:32.611Z,70.75
2019-02-02T19:44:09.472Z,70.63
2019-02-02T19:46:47.770Z,70.22
2019-02-02T19:49:19.073Z,69.93
2019-02-02T19:51:48.218Z,69.96
2019-02-02T19:54:17.876Z,69.96
2019-02-02T19:56:46.365Z,70.12
2019-02-02T19:59:15.902Z,70.18
2019-02-02T20:01:44.312Z,69.91
2019-02-02T20:04:12.776Z,69.64
2019-02-02T20:06:41.147Z,69.87
2019-02-02T20:09:09.767Z,69.68
2019-02-02T20:11:38.235Z,69.68
2019-02-02T20:14:06.839Z,69.09
2019-02-02T20:16:35.434Z,69.65
2019-02-02T20:19:03.959Z,69.10
2019-02-02T20:21:34.128Z,69.46
2019-02-02T20:24:02.542Z,69.05
2019-02-02T20:26:32.837Z,68.70
2019-02-02T20:29:01.625Z,69.05
2019-02-02T20:31:30.430Z,69.05
2019-02-02T20:34:00.577Z,69.53
2019-02-02T20:36:29.141Z,69.84
2019-02-02T20:38:57.620Z,70.12
2019-02-02T20:41:28.334Z,70.27
2019-02-02T20:43:57.200Z,70.43
2019-02-02T20:46:25.655Z,70.39
2019-02-02T20:48:54.230Z,70.15
2019-02-02T20:52:18.051Z,70.12
2019-02-02T20:55:18.247Z,70.08
2019-02-02T20:58:16.761Z,70.19
2019-02-02T21:04:17.315Z,70.46
2019-02-02T21:07:16.023Z,70.57
2019-02-02T21:13:17.514Z,69.98
2019-02-02T21:16:16.435Z,69.84
2019-02-02T21:19:20.464Z,69.60
2019-02-02T21:22:15.990Z,69.75
2019-02-02T21:29:19.834Z,70.70
2019-02-02T21:32:18.051Z,71.29
2019-02-02T21:35:16.834Z,71.19
2019-02-02T21:38:16.138Z,71.41
2019-02-02T21:40:44.649Z,71.21
2019-02-02T21:43:15.993Z,71.23
2019-02-02T21:45:46.047Z,71.51
2019-02-02T21:48:14.545Z,71.49
2019-02-02T21:50:42.850Z,71.10
2019-02-02T21:53:12.762Z,70.94
2019-02-02T21:55:41.058Z,71.02
2019-02-02T21:58:10.649Z,70.94
2019-02-02T22:00:40.962Z,71.11
2019-02-02T22:03:09.444Z,71.01
2019-02-02T22:05:37.985Z,70.76
2019-02-02T22:08:06.904Z,70.82
2019-02-02T22:10:35.274Z,70.62
2019-02-02T22:13:03.805Z,71.14
2019-02-02T22:15:32.217Z,70.89
2019-02-02T22:18:00.517Z,70.77
2019-02-02T22:20:30.008Z,70.69
2019-02-02T22:22:58.383Z,70.93
2019-02-02T22:25:33.732Z,71.26
2019-02-02T22:28:02.128Z,71.58
2019-02-02T22:30:32.915Z,71.60
2019-02-02T22:33:03.011Z,71.89
2019-02-02T22:35:31.473Z,71.95
2019-02-02T22:38:00.097Z,71.73
2019-02-02T22:40:28.906Z,71.40
2019-02-02T22:42:57.279Z,71.70
2019-02-02T22:45:25.835Z,71.35
2019-02-02T22:47:54.156Z,71.20
2019-02-02T22:50:26.870Z,71.13
2019-02-02T22:52:56.575Z,70.95
2019-02-02T22:55:28.101Z,70.93
2019-02-02T22:57:56.600Z,70.99
2019-02-02T23:00:56.650Z,70.95
2019-02-02T23:03:30.968Z,70.79
2019-02-02T23:06:18.810Z,70.81
2019-02-02T23:09:07.089Z,70.63
2019-02-02T23:12:17.821Z,71.04
2019-02-02T23:15:01.203Z,70.67
2019-02-02T23:17:29.612Z,71.37
2019-02-02T23:20:16.531Z,71.92
2019-02-02T23:22:45.131Z,71.51
2019-02-02T23:25:13.582Z,70.98
2019-02-02T23:27:42.010Z,71.31
2019-02-02T23:30:15.428Z,71.18
2019-02-02T23:32:43.770Z,70.81
2019-02-02T23:35:12.229Z,71.00
2019-02-02T23:37:40.563Z,71.00
2019-02-02T23:40:13.119Z,70.62
2019-02-02T23:42:41.566Z,70.93
2019-02-02T23:45:10.450Z,70.64
2019-02-02T23:47:39.484Z,70.28
2019-02-02T23:50:09.699Z,70.83
2019-02-02T23:52:38.012Z,70.53
2019-02-02T23:55:09.058Z,70.65
2019-02-02T23:57:38.355Z,70.43
